createdAt,value
2023-05-24T00:00:26.564Z,1019.00
2023-05-24T00:01:26.533Z,1021.00
2023-05-24T00:02:26.617Z,1020.00
2023-05-24T00:03:26.597Z,1005.00
2023-05-24T00:04:26.558Z,1026.00
2023-05-24T00:05:26.506Z,1014.00
2023-05-24T00:06:26.529Z,1019.00
2023-05-24T00:07:26.472Z,1010.00
2023-05-24T00:08:26.488Z,1015.00
2023-05-24T00:09:26.495Z,1013.00
2023-05-24T00:10:26.489Z,1012.00
2023-05-24T00:11:26.512Z,1005.00
2023-05-24T00:12:26.477Z,1007.00
2023-05-24T00:13:26.455Z,1008.00
2023-05-24T00:14:26.477Z,1000.00
2023-05-24T00:15:26.436Z,1000.00
2023-05-24T00:16:26.457Z,996.00
2023-05-24T00:17:26.485Z,996.00
2023-05-24T00:18:26.414Z,995.00
2023-05-24T00:19:26.408Z,997.00
2023-05-24T00:20:26.515Z,989.00
2023-05-24T00:21:26.404Z,994.00
2023-05-24T00:22:26.374Z,989.00
2023-05-24T00:23:26.382Z,992.00
2023-05-24T00:24:26.365Z,994.00
2023-05-24T00:25:26.343Z,992.00
2023-05-24T00:26:26.365Z,987.00
2023-05-24T00:27:26.345Z,992.00
2023-05-24T00:28:26.360Z,986.00
2023-05-24T00:29:26.374Z,979.00
2023-05-24T00:30:26.326Z,987.00
2023-05-24T00:31:26.365Z,982.00
2023-05-24T00:32:26.316Z,991.00
2023-05-24T00:33:26.305Z,978.00
2023-05-24T00:34:26.329Z,970.00
2023-05-24T00:35:26.300Z,977.00
2023-05-24T00:36:26.311Z,979.00
2023-05-24T00:37:26.288Z,970.00
2023-05-24T00:38:26.300Z,976.00
2023-05-24T00:39:26.286Z,989.00
2023-05-24T00:40:26.243Z,977.00
2023-05-24T00:41:26.308Z,968.00
2023-05-24T00:42:26.259Z,970.00
2023-05-24T00:43:26.286Z,961.00
2023-05-24T00:44:26.230Z,966.00
2023-05-24T00:45:26.260Z,954.00
2023-05-24T00:46:26.288Z,948.00
2023-05-24T00:47:26.319Z,962.00
2023-05-24T00:48:26.223Z,960.00
2023-05-24T00:49:26.220Z,958.00
2023-05-24T00:50:26.234Z,950.00
2023-05-24T00:51:26.226Z,955.00
2023-05-24T00:52:26.209Z,955.00
2023-05-24T00:53:26.178Z,954.00
2023-05-24T00:54:26.152Z,948.00
2023-05-24T00:55:26.191Z,949.00
2023-05-24T00:56:26.191Z,952.00
2023-05-24T00:57:26.176Z,953.00
2023-05-24T00:58:26.162Z,954.00
2023-05-24T00:59:26.163Z,943.00
2023-05-24T01:00:26.142Z,954.00
2023-05-24T01:01:26.280Z,944.00
2023-05-24T01:02:26.222Z,957.00
2023-05-24T01:03:26.156Z,939.00
2023-05-24T01:04:26.126Z,939.00
2023-05-24T01:05:26.115Z,944.00
2023-05-24T01:06:26.112Z,949.00
2023-05-24T01:07:26.086Z,942.00
2023-05-24T01:08:26.091Z,928.00
2023-05-24T01:09:26.073Z,927.00
2023-05-24T01:10:26.077Z,926.00
2023-05-24T01:11:26.077Z,940.00
2023-05-24T01:12:26.066Z,940.00
2023-05-24T01:13:26.088Z,931.00
2023-05-24T01:14:26.039Z,942.00
2023-05-24T01:15:26.050Z,921.00
2023-05-24T01:16:26.118Z,934.00
2023-05-24T01:17:26.062Z,917.00
2023-05-24T01:18:26.044Z,926.00
2023-05-24T01:19:26.049Z,916.00
2023-05-24T01:20:26.051Z,934.00
2023-05-24T01:21:26.012Z,931.00
2023-05-24T01:22:26.066Z,915.00
2023-05-24T01:23:26.000Z,923.00
2023-05-24T01:24:26.026Z,910.00
2023-05-24T01:25:25.976Z,915.00
2023-05-24T01:26:25.973Z,907.00
2023-05-24T01:27:25.973Z,911.00
2023-05-24T01:28:25.994Z,920.00
2023-05-24T01:29:25.972Z,917.00
2023-05-24T01:30:25.940Z,917.00
2023-05-24T01:31:25.973Z,912.00
2023-05-24T01:32:25.980Z,910.00
2023-05-24T01:33:25.953Z,918.00
2023-05-24T01:34:25.930Z,905.00
2023-05-24T01:35:25.935Z,906.00
2023-05-24T01:36:25.915Z,909.00
2023-05-24T01:37:25.933Z,909.00
2023-05-24T01:38:25.939Z,898.00
2023-05-24T01:39:25.918Z,898.00
2023-05-24T01:40:25.969Z,893.00
2023-05-24T01:41:25.963Z,905.00
2023-05-24T01:42:25.978Z,915.00
2023-05-24T01:43:25.944Z,909.00
2023-05-24T01:44:25.932Z,896.00
2023-05-24T01:45:25.974Z,902.00
2023-05-24T01:46:25.986Z,906.00
2023-05-24T01:47:26.001Z,889.00
2023-05-24T01:48:25.960Z,896.00
2023-05-24T01:49:25.987Z,888.00
2023-05-24T01:50:26.105Z,894.00
2023-05-24T01:51:25.989Z,902.00
2023-05-24T01:52:26.045Z,892.00
2023-05-24T01:53:25.951Z,885.00
2023-05-24T01:54:25.978Z,896.00
2023-05-24T01:55:26.014Z,893.00
2023-05-24T01:56:25.984Z,890.00
2023-05-24T01:57:25.987Z,894.00
2023-05-24T01:58:25.985Z,874.00
2023-05-24T01:59:25.995Z,874.00
2023-05-24T02:00:26.003Z,884.00
2023-05-24T02:01:26.066Z,878.00
2023-05-24T02:02:26.147Z,890.00
2023-05-24T02:03:26.169Z,889.00
2023-05-24T02:04:26.027Z,862.00
2023-05-24T02:05:26.042Z,880.00
2023-05-24T02:06:26.042Z,879.00
2023-05-24T02:07:26.059Z,868.00
2023-05-24T02:08:26.048Z,875.00
2023-05-24T02:09:26.063Z,875.00
2023-05-24T02:10:26.087Z,861.00
2023-05-24T02:11:26.086Z,870.00
2023-05-24T02:12:26.096Z,865.00
2023-05-24T02:13:26.109Z,873.00
2023-05-24T02:14:26.102Z,862.00
2023-05-24T02:15:26.125Z,855.00
2023-05-24T02:16:26.151Z,864.00
2023-05-24T02:17:26.162Z,858.00
2023-05-24T02:18:26.171Z,852.00
2023-05-24T02:19:26.140Z,862.00
2023-05-24T02:20:26.222Z,854.00
2023-05-24T02:21:26.188Z,865.00
2023-05-24T02:22:26.209Z,870.00
2023-05-24T02:23:26.212Z,860.00
2023-05-24T02:24:26.213Z,850.00
2023-05-24T02:25:26.252Z,854.00
2023-05-24T02:26:26.225Z,856.00
2023-05-24T02:27:26.237Z,845.00
2023-05-24T02:28:26.266Z,847.00
2023-05-24T02:29:26.258Z,842.00
2023-05-24T02:30:26.261Z,842.00
2023-05-24T02:31:26.344Z,848.00
2023-05-24T02:32:26.311Z,846.00
2023-05-24T02:33:26.338Z,849.00
2023-05-24T02:34:26.329Z,846.00
2023-05-24T02:35:26.334Z,838.00
2023-05-24T02:36:26.318Z,840.00
2023-05-24T02:37:26.331Z,844.00
2023-05-24T02:38:26.383Z,829.00
2023-05-24T02:39:26.384Z,840.00
2023-05-24T02:40:26.393Z,833.00
2023-05-24T02:41:26.460Z,832.00
2023-05-24T02:42:26.398Z,837.00
2023-05-24T02:43:26.449Z,829.00
2023-05-24T02:44:26.413Z,824.00
2023-05-24T02:45:26.420Z,832.00
2023-05-24T02:46:26.514Z,828.00
2023-05-24T02:47:26.482Z,832.00
2023-05-24T02:48:26.472Z,831.00
2023-05-24T02:49:26.452Z,824.00
2023-05-24T02:50:26.504Z,823.00
2023-05-24T02:51:26.516Z,816.00
2023-05-24T02:52:26.489Z,820.00
2023-05-24T02:53:26.522Z,829.00
2023-05-24T02:54:26.530Z,807.00
2023-05-24T02:55:26.570Z,829.00
2023-05-24T02:56:26.615Z,816.00
2023-05-24T02:57:26.576Z,813.00
2023-05-24T02:58:26.588Z,808.00
2023-05-24T02:59:26.593Z,821.00
2023-05-24T03:00:26.622Z,811.00
2023-05-24T03:01:26.655Z,815.00
2023-05-24T03:02:26.698Z,812.00
2023-05-24T03:03:26.827Z,818.00
2023-05-24T03:04:26.666Z,816.00
2023-05-24T03:05:26.697Z,814.00
2023-05-24T03:06:26.712Z,819.00
2023-05-24T03:07:26.708Z,809.00
2023-05-24T03:08:26.726Z,816.00
2023-05-24T03:09:26.832Z,806.00
2023-05-24T03:10:26.800Z,805.00
2023-05-24T03:11:26.806Z,794.00
2023-05-24T03:12:26.826Z,801.00
2023-05-24T03:13:26.816Z,789.00
2023-05-24T03:14:26.829Z,798.00
2023-05-24T03:15:26.874Z,791.00
2023-05-24T03:16:26.975Z,803.00
2023-05-24T03:17:26.894Z,794.00
2023-05-24T03:18:26.897Z,791.00
2023-05-24T03:19:26.951Z,796.00
2023-05-24T03:20:27.010Z,780.00
2023-05-24T03:21:27.015Z,791.00
2023-05-24T03:22:26.995Z,804.00
2023-05-24T03:23:26.986Z,788.00
2023-05-24T03:24:27.001Z,796.00
2023-05-24T03:25:27.022Z,798.00
2023-05-24T03:26:27.065Z,796.00
2023-05-24T03:27:27.050Z,784.00
2023-05-24T03:28:27.082Z,794.00
2023-05-24T03:29:27.082Z,782.00
2023-05-24T03:30:27.091Z,789.00
2023-05-24T03:31:27.152Z,784.00
2023-05-24T03:32:27.157Z,777.00
2023-05-24T03:33:27.134Z,789.00
2023-05-24T03:34:27.162Z,785.00
2023-05-24T03:35:27.161Z,780.00
2023-05-24T03:36:27.178Z,779.00
2023-05-24T03:37:27.180Z,776.00
2023-05-24T03:38:27.236Z,779.00
2023-05-24T03:39:27.218Z,772.00
2023-05-24T03:40:27.260Z,778.00
2023-05-24T03:41:27.262Z,782.00
2023-05-24T03:42:27.236Z,777.00
2023-05-24T03:43:27.266Z,772.00
2023-05-24T03:44:27.322Z,781.00
2023-05-24T03:45:38.520Z,790.00
2023-05-24T03:46:28.340Z,791.00
2023-05-24T03:47:27.326Z,788.00
2023-05-24T03:48:27.271Z,784.00
2023-05-24T03:49:27.282Z,787.00
2023-05-24T03:50:27.266Z,777.00
2023-05-24T03:51:27.266Z,775.00
2023-05-24T03:52:27.232Z,780.00
2023-05-24T03:53:27.245Z,771.00
2023-05-24T03:54:27.217Z,783.00
2023-05-24T03:55:27.241Z,775.00
2023-05-24T03:56:27.253Z,768.00
2023-05-24T03:57:27.239Z,768.00
2023-05-24T03:58:27.177Z,767.00
2023-05-24T03:59:27.191Z,767.00
2023-05-24T04:00:27.184Z,750.00
2023-05-24T04:01:34.210Z,757.00
2023-05-24T04:02:28.268Z,759.00
2023-05-24T04:03:27.257Z,761.00
2023-05-24T04:04:27.191Z,764.00
2023-05-24T04:05:27.298Z,762.00
2023-05-24T04:06:27.166Z,760.00
2023-05-24T04:07:27.178Z,756.00
2023-05-24T04:08:27.155Z,768.00
2023-05-24T04:09:27.137Z,756.00
2023-05-24T04:10:27.127Z,762.00
2023-05-24T04:11:27.124Z,755.00
2023-05-24T04:12:27.118Z,750.00
2023-05-24T04:13:27.111Z,746.00
2023-05-24T04:14:27.079Z,762.00
2023-05-24T04:15:27.108Z,752.00
2023-05-24T04:16:27.135Z,741.00
2023-05-24T04:17:27.243Z,743.00
2023-05-24T04:18:27.111Z,763.00
2023-05-24T04:19:27.057Z,744.00
2023-05-24T04:20:27.096Z,746.00
2023-05-24T04:21:27.069Z,734.00
2023-05-24T04:22:27.042Z,733.00
2023-05-24T04:23:27.052Z,744.00
2023-05-24T04:24:27.038Z,751.00
2023-05-24T04:25:27.032Z,745.00
2023-05-24T04:26:27.027Z,744.00
2023-05-24T04:27:26.993Z,740.00
2023-05-24T04:28:27.013Z,732.00
2023-05-24T04:29:26.979Z,731.00
2023-05-24T04:30:26.989Z,732.00
2023-05-24T04:31:27.052Z,728.00
2023-05-24T04:32:27.017Z,739.00
2023-05-24T04:33:27.044Z,728.00
2023-05-24T04:34:27.064Z,729.00
2023-05-24T04:35:27.106Z,742.00
2023-05-24T04:36:27.139Z,718.00
2023-05-24T04:37:27.137Z,731.00
2023-05-24T04:38:27.155Z,729.00
2023-05-24T04:39:27.151Z,725.00
2023-05-24T04:40:27.262Z,713.00
2023-05-24T04:41:27.237Z,718.00
2023-05-24T04:42:27.232Z,724.00
2023-05-24T04:43:27.264Z,719.00
2023-05-24T04:44:27.281Z,722.00
2023-05-24T04:45:27.273Z,731.00
2023-05-24T04:46:27.367Z,727.00
2023-05-24T04:47:27.340Z,721.00
2023-05-24T04:48:27.325Z,713.00
2023-05-24T04:49:27.381Z,716.00
2023-05-24T04:50:27.362Z,719.00
2023-05-24T04:51:27.392Z,713.00
2023-05-24T04:52:27.415Z,720.00
2023-05-24T04:53:27.425Z,709.00
2023-05-24T04:54:27.437Z,715.00
2023-05-24T04:55:27.464Z,717.00
2023-05-24T04:56:27.462Z,706.00
2023-05-24T04:57:27.447Z,716.00
2023-05-24T04:58:27.517Z,707.00
2023-05-24T04:59:27.506Z,712.00
2023-05-24T05:00:27.568Z,703.00
2023-05-24T05:01:27.611Z,720.00
2023-05-24T05:02:27.593Z,710.00
2023-05-24T05:03:27.662Z,716.00
2023-05-24T05:04:27.614Z,704.00
2023-05-24T05:05:27.618Z,704.00
2023-05-24T05:06:27.654Z,704.00
2023-05-24T05:07:27.655Z,701.00
2023-05-24T05:08:27.670Z,707.00
2023-05-24T05:09:27.692Z,711.00
2023-05-24T05:10:27.703Z,695.00
2023-05-24T05:11:27.723Z,704.00
2023-05-24T05:12:27.728Z,700.00
2023-05-24T05:13:27.720Z,693.00
2023-05-24T05:14:27.785Z,694.00
2023-05-24T05:15:27.839Z,693.00
2023-05-24T05:16:27.884Z,700.00
2023-05-24T05:17:27.805Z,683.00
2023-05-24T05:18:27.835Z,695.00
2023-05-24T05:19:27.870Z,709.00
2023-05-24T05:20:27.941Z,706.00
2023-05-24T05:21:27.908Z,706.00
2023-05-24T05:22:29.457Z,700.00
2023-05-24T05:23:27.916Z,714.00
2023-05-24T05:24:27.884Z,705.00
2023-05-24T05:25:27.888Z,696.00
2023-05-24T05:26:27.902Z,688.00
2023-05-24T05:27:27.866Z,694.00
2023-05-24T05:28:27.884Z,688.00
2023-05-24T05:29:27.885Z,683.00
2023-05-24T05:30:27.897Z,688.00
2023-05-24T05:31:27.882Z,706.00
2023-05-24T05:32:27.952Z,693.00
2023-05-24T05:33:27.933Z,684.00
2023-05-24T05:34:27.820Z,693.00
2023-05-24T05:35:27.823Z,692.00
2023-05-24T05:36:27.828Z,685.00
2023-05-24T05:37:27.828Z,689.00
2023-05-24T05:38:27.796Z,697.00
2023-05-24T05:39:27.800Z,691.00
2023-05-24T05:40:27.782Z,695.00
2023-05-24T05:41:27.793Z,675.00
2023-05-24T05:42:27.773Z,685.00
2023-05-24T05:43:27.820Z,685.00
2023-05-24T05:44:27.747Z,689.00
2023-05-24T05:45:27.750Z,684.00
2023-05-24T05:46:27.838Z,687.00
2023-05-24T05:47:27.796Z,690.00
2023-05-24T05:48:27.741Z,697.00
2023-05-24T05:49:27.718Z,713.00
2023-05-24T05:50:27.715Z,710.00
2023-05-24T05:51:27.772Z,735.00
2023-05-24T05:52:27.716Z,739.00
2023-05-24T05:53:27.718Z,754.00
2023-05-24T05:54:27.696Z,739.00
2023-05-24T05:55:27.698Z,751.00
2023-05-24T05:56:27.667Z,770.00
2023-05-24T05:57:27.659Z,778.00
2023-05-24T05:58:27.662Z,711.00
2023-05-24T05:59:27.649Z,676.00
2023-05-24T06:00:27.669Z,652.00
2023-05-24T06:01:27.687Z,673.00
2023-05-24T06:02:27.767Z,647.00
2023-05-24T06:03:27.834Z,727.00
2023-05-24T06:04:27.637Z,827.00
2023-05-24T06:05:27.623Z,900.00
2023-05-24T06:06:27.641Z,956.00
2023-05-24T06:07:27.606Z,1021.00
2023-05-24T06:08:27.580Z,1183.00
2023-05-24T06:09:27.598Z,1446.00
2023-05-24T06:10:27.603Z,1665.00
2023-05-24T06:11:27.612Z,1709.00
2023-05-24T06:12:27.599Z,1706.00
2023-05-24T06:13:27.576Z,1725.00
2023-05-24T06:14:27.559Z,1743.00
2023-05-24T06:15:27.554Z,1758.00
2023-05-24T06:16:27.596Z,1767.00
2023-05-24T06:17:27.547Z,1756.00
2023-05-24T06:18:27.515Z,1746.00
2023-05-24T06:19:27.525Z,1783.00
2023-05-24T06:20:27.586Z,1789.00
2023-05-24T06:21:27.547Z,1799.00
2023-05-24T06:22:27.494Z,1827.00
2023-05-24T06:23:27.530Z,1856.00
2023-05-24T06:24:27.481Z,1879.00
2023-05-24T06:25:27.524Z,1917.00
2023-05-24T06:26:27.478Z,1937.00
2023-05-24T06:27:27.512Z,1941.00
2023-05-24T06:28:27.520Z,1970.00
2023-05-24T06:29:27.480Z,1967.00
2023-05-24T06:30:27.512Z,1971.00
2023-05-24T06:31:27.506Z,1964.00
2023-05-24T06:32:27.513Z,1934.00
2023-05-24T06:33:27.419Z,1923.00
2023-05-24T06:34:27.412Z,1885.00
2023-05-24T06:35:27.441Z,1832.00
2023-05-24T06:36:27.424Z,1818.00
2023-05-24T06:37:27.439Z,1795.00
2023-05-24T06:38:27.436Z,1754.00
2023-05-24T06:39:27.390Z,1732.00
2023-05-24T06:40:27.443Z,1716.00
2023-05-24T06:41:27.441Z,1695.00
2023-05-24T06:42:27.383Z,1661.00
2023-05-24T06:43:27.378Z,1647.00
2023-05-24T06:44:27.371Z,1630.00
2023-05-24T06:45:27.342Z,1625.00
2023-05-24T06:46:27.390Z,1610.00
2023-05-24T06:47:27.454Z,1604.00
2023-05-24T06:48:27.386Z,1571.00
2023-05-24T06:49:27.338Z,1549.00
2023-05-24T06:50:27.312Z,1529.00
2023-05-24T06:51:27.370Z,1515.00
2023-05-24T06:52:27.295Z,1486.00
2023-05-24T06:53:27.303Z,1258.00
2023-05-24T06:54:27.282Z,1238.00
2023-05-24T06:55:27.296Z,1304.00
2023-05-24T06:56:27.287Z,986.00
2023-05-24T06:57:27.278Z,694.00
2023-05-24T06:58:27.266Z,665.00
2023-05-24T06:59:27.295Z,588.00
2023-05-24T07:00:27.255Z,631.00
2023-05-24T07:01:27.283Z,651.00
2023-05-24T07:02:27.329Z,648.00
2023-05-24T07:03:27.267Z,629.00
2023-05-24T07:04:27.363Z,638.00
2023-05-24T07:05:27.337Z,641.00
2023-05-24T07:06:27.330Z,623.00
2023-05-24T07:07:27.349Z,591.00
2023-05-24T07:08:27.333Z,579.00
2023-05-24T07:09:27.409Z,597.00
2023-05-24T07:10:27.363Z,633.00
2023-05-24T07:11:27.344Z,617.00
2023-05-24T07:12:27.371Z,607.00
2023-05-24T07:13:27.378Z,591.00
2023-05-24T07:14:27.442Z,585.00
2023-05-24T07:15:27.423Z,586.00
2023-05-24T07:16:27.563Z,630.00
2023-05-24T07:17:27.574Z,655.00
2023-05-24T07:18:27.616Z,674.00
2023-05-24T07:19:27.658Z,706.00
2023-05-24T07:20:27.749Z,739.00
2023-05-24T07:21:27.754Z,761.00
2023-05-24T07:22:27.843Z,760.00
2023-05-24T07:23:27.818Z,758.00
2023-05-24T07:24:27.900Z,782.00
2023-05-24T07:25:27.894Z,802.00
2023-05-24T07:26:27.955Z,802.00
2023-05-24T07:27:27.968Z,776.00
2023-05-24T07:28:28.149Z,788.00
2023-05-24T07:29:28.005Z,796.00
2023-05-24T07:31:28.037Z,796.00
2023-05-24T07:32:28.101Z,808.00
2023-05-24T07:33:28.034Z,810.00
2023-05-24T07:34:27.962Z,808.00
2023-05-24T07:35:28.001Z,802.00
2023-05-24T07:36:27.987Z,806.00
2023-05-24T07:37:27.952Z,806.00
2023-05-24T07:38:27.971Z,796.00
2023-05-24T07:39:27.958Z,807.00
2023-05-24T07:40:27.940Z,808.00
2023-05-24T07:41:27.947Z,804.00
2023-05-24T07:42:27.935Z,802.00
2023-05-24T07:43:27.955Z,796.00
2023-05-24T07:44:27.905Z,773.00
2023-05-24T07:45:27.919Z,774.00
2023-05-24T07:46:27.971Z,746.00
2023-05-24T07:47:27.926Z,599.00
2023-05-24T07:48:27.918Z,539.00
2023-05-24T07:49:27.917Z,497.00
2023-05-24T07:50:27.912Z,503.00
2023-05-24T07:51:27.901Z,505.00
2023-05-24T07:52:27.878Z,505.00
2023-05-24T07:53:27.872Z,539.00
2023-05-24T07:54:27.841Z,590.00
2023-05-24T07:55:27.848Z,602.00
2023-05-24T07:56:27.854Z,634.00
2023-05-24T07:57:27.878Z,664.00
2023-05-24T07:58:27.827Z,609.00
2023-05-24T07:59:28.362Z,639.00
2023-05-24T08:00:27.880Z,586.00
2023-05-24T08:01:27.813Z,581.00
2023-05-24T08:02:27.924Z,553.00
2023-05-24T08:03:27.963Z,522.00
2023-05-24T08:04:27.812Z,524.00
2023-05-24T08:05:27.774Z,547.00
2023-05-24T08:06:27.858Z,499.00
2023-05-24T08:07:27.812Z,500.00
2023-05-24T08:08:27.788Z,500.00
2023-05-24T08:09:27.761Z,508.00
2023-05-24T08:10:27.781Z,518.00
2023-05-24T08:11:27.754Z,502.00
2023-05-24T08:12:27.732Z,508.00
2023-05-24T08:13:27.738Z,509.00
2023-05-24T08:14:27.749Z,541.00
2023-05-24T08:15:27.697Z,582.00
2023-05-24T08:16:27.807Z,628.00
2023-05-24T08:17:27.751Z,666.00
2023-05-24T08:18:27.714Z,741.00
2023-05-24T08:19:27.749Z,806.00
2023-05-24T08:20:27.747Z,849.00
2023-05-24T08:21:27.719Z,895.00
2023-05-24T08:22:27.660Z,941.00
2023-05-24T08:23:27.681Z,976.00
2023-05-24T08:24:27.651Z,1021.00
2023-05-24T08:25:27.658Z,1065.00
2023-05-24T08:26:27.647Z,1098.00
2023-05-24T08:27:27.659Z,1139.00
2023-05-24T08:28:27.706Z,1180.00
2023-05-24T08:29:27.644Z,1215.00
2023-05-24T08:30:27.627Z,1247.00
2023-05-24T08:31:27.677Z,1269.00
2023-05-24T08:32:27.778Z,1304.00
2023-05-24T08:33:27.599Z,1323.00
2023-05-24T08:34:27.629Z,1363.00
2023-05-24T08:35:27.588Z,1390.00
2023-05-24T08:36:27.596Z,1414.00
2023-05-24T08:37:27.558Z,1427.00
2023-05-24T08:38:27.583Z,1452.00
2023-05-24T08:39:27.576Z,1460.00
2023-05-24T08:40:27.548Z,1482.00
2023-05-24T08:41:27.582Z,1493.00
2023-05-24T08:42:27.656Z,1503.00
2023-05-24T08:43:27.695Z,1527.00
2023-05-24T08:44:27.753Z,1545.00
2023-05-24T08:45:27.842Z,1556.00
2023-05-24T08:46:27.873Z,1571.00
2023-05-24T08:47:28.034Z,1582.00
2023-05-24T08:48:28.110Z,1604.00
2023-05-24T08:49:28.016Z,1613.00
2023-05-24T08:50:28.045Z,1620.00
2023-05-24T08:51:28.135Z,1623.00
2023-05-24T08:52:28.159Z,1621.00
2023-05-24T08:53:28.255Z,1633.00
2023-05-24T08:54:28.267Z,1622.00
2023-05-24T08:55:29.460Z,1624.00
2023-05-24T08:56:28.266Z,1642.00
2023-05-24T08:57:28.226Z,1651.00
2023-05-24T08:58:28.238Z,1647.00
2023-05-24T08:59:28.273Z,1644.00
2023-05-24T09:00:28.233Z,1634.00
2023-05-24T09:01:31.075Z,1633.00
2023-05-24T09:02:28.240Z,1649.00
2023-05-24T09:03:28.282Z,1616.00
2023-05-24T09:04:28.313Z,1613.00
2023-05-24T09:05:28.240Z,1599.00
2023-05-24T09:06:28.396Z,1605.00
2023-05-24T09:07:29.389Z,1578.00
2023-05-24T09:08:28.197Z,1579.00
2023-05-24T09:09:28.220Z,1573.00
2023-05-24T09:10:29.721Z,1569.00
2023-05-24T09:11:28.197Z,1565.00
2023-05-24T09:12:37.212Z,1542.00
2023-05-24T09:13:29.166Z,1579.00
2023-05-24T09:14:28.176Z,1558.00
2023-05-24T09:15:28.177Z,1537.00
2023-05-24T09:16:28.458Z,1520.00
2023-05-24T09:17:28.521Z,1530.00
2023-05-24T09:18:28.115Z,1513.00
2023-05-24T09:19:28.132Z,1501.00
2023-05-24T09:20:28.249Z,1502.00
2023-05-24T09:21:28.396Z,1493.00
2023-05-24T09:22:28.080Z,1484.00
2023-05-24T09:23:28.142Z,1488.00
2023-05-24T09:24:28.086Z,1467.00
2023-05-24T09:25:28.070Z,1470.00
2023-05-24T09:26:28.072Z,1466.00
2023-05-24T09:27:28.080Z,1458.00
2023-05-24T09:28:28.074Z,1469.00
2023-05-24T09:29:28.070Z,1457.00
2023-05-24T09:30:28.047Z,1452.00
2023-05-24T09:31:28.432Z,1447.00
2023-05-24T09:32:28.081Z,1450.00
2023-05-24T09:33:28.018Z,1445.00
2023-05-24T09:34:28.036Z,1444.00
2023-05-24T09:35:28.017Z,1435.00
2023-05-24T09:36:28.423Z,1424.00
2023-05-24T09:37:31.058Z,1415.00
2023-05-24T09:38:28.033Z,1416.00
2023-05-24T09:39:27.994Z,1417.00
2023-05-24T09:40:27.996Z,1415.00
2023-05-24T09:41:27.997Z,1403.00
2023-05-24T09:42:27.977Z,1416.00
2023-05-24T09:43:27.961Z,1406.00
2023-05-24T09:44:27.940Z,1406.00
2023-05-24T09:45:27.929Z,1390.00
2023-05-24T09:46:28.493Z,1409.00
2023-05-24T09:47:27.980Z,1405.00
2023-05-24T09:48:27.930Z,1398.00
2023-05-24T09:49:27.950Z,1399.00
2023-05-24T09:50:27.929Z,1391.00
2023-05-24T09:51:28.515Z,1400.00
2023-05-24T09:52:27.959Z,1400.00
2023-05-24T09:53:27.894Z,1374.00
2023-05-24T09:54:27.863Z,1381.00
2023-05-24T09:55:27.886Z,1395.00
2023-05-24T09:56:27.895Z,1367.00
2023-05-24T09:57:27.840Z,1374.00
2023-05-24T09:58:27.863Z,1373.00
2023-05-24T09:59:27.884Z,1380.00
2023-05-24T10:00:27.856Z,1370.00
2023-05-24T10:01:27.864Z,1368.00
2023-05-24T10:02:33.192Z,1370.00
2023-05-24T10:03:28.935Z,1371.00
2023-05-24T10:04:27.917Z,1373.00
2023-05-24T10:05:27.847Z,1373.00
2023-05-24T10:06:27.836Z,1367.00
2023-05-24T10:07:27.797Z,1375.00
2023-05-24T10:08:27.816Z,1369.00
2023-05-24T10:09:27.778Z,1374.00
2023-05-24T10:10:27.793Z,1355.00
2023-05-24T10:11:27.779Z,1349.00
2023-05-24T10:12:27.790Z,1355.00
2023-05-24T10:13:27.784Z,1359.00
2023-05-24T10:14:27.729Z,1347.00
2023-05-24T10:15:27.747Z,1361.00
2023-05-24T10:16:27.767Z,1377.00
2023-05-24T10:17:27.756Z,1343.00
2023-05-24T10:18:27.730Z,1365.00
2023-05-24T10:19:27.740Z,1347.00
2023-05-24T10:20:27.836Z,1357.00
2023-05-24T10:21:27.833Z,1351.00
2023-05-24T10:22:27.881Z,1348.00
2023-05-24T10:23:27.892Z,1339.00
2023-05-24T10:24:27.916Z,1354.00
2023-05-24T10:25:27.969Z,1341.00
2023-05-24T10:26:28.008Z,1336.00
2023-05-24T10:27:28.094Z,1348.00
2023-05-24T10:28:28.095Z,1331.00
2023-05-24T10:29:28.161Z,1329.00
2023-05-24T10:30:28.204Z,1332.00
2023-05-24T10:31:28.328Z,1342.00
2023-05-24T10:32:28.290Z,1328.00
2023-05-24T10:33:28.277Z,1322.00
2023-05-24T10:34:28.368Z,1327.00
2023-05-24T10:35:28.436Z,1331.00
2023-05-24T10:36:28.428Z,1328.00
2023-05-24T10:37:28.487Z,1329.00
2023-05-24T10:38:28.526Z,1304.00
2023-05-24T10:39:28.591Z,1311.00
2023-05-24T10:40:28.684Z,1312.00
2023-05-24T10:41:28.722Z,1316.00
2023-05-24T10:42:28.744Z,1300.00
2023-05-24T10:43:28.751Z,1306.00
2023-05-24T10:44:28.837Z,1312.00
2023-05-24T10:45:28.857Z,1306.00
2023-05-24T10:46:28.964Z,1310.00
2023-05-24T10:47:29.014Z,1304.00
2023-05-24T10:48:28.985Z,1316.00
2023-05-24T10:49:29.063Z,1285.00
2023-05-24T10:50:29.089Z,1298.00
2023-05-24T10:51:29.135Z,1301.00
2023-05-24T10:52:30.125Z,1302.00
2023-05-24T10:53:29.090Z,1303.00
2023-05-24T10:54:29.120Z,1295.00
2023-05-24T10:55:29.130Z,1295.00
2023-05-24T10:56:29.100Z,1300.00
2023-05-24T10:57:29.086Z,1300.00
2023-05-24T10:58:29.101Z,1296.00
2023-05-24T10:59:29.074Z,1294.00
2023-05-24T11:01:29.534Z,1295.00
2023-05-24T11:02:29.097Z,1274.00
2023-05-24T11:03:29.068Z,1287.00
2023-05-24T11:04:29.041Z,1270.00
2023-05-24T11:05:29.194Z,1284.00
2023-05-24T11:06:29.417Z,1295.00
2023-05-24T11:07:29.046Z,1306.00
2023-05-24T11:08:29.014Z,1287.00
2023-05-24T11:09:29.003Z,1313.00
2023-05-24T11:10:29.025Z,1313.00
2023-05-24T11:11:31.386Z,1313.00
2023-05-24T11:12:29.005Z,1339.00
2023-05-24T11:13:29.009Z,1332.00
2023-05-24T11:14:28.973Z,1334.00
2023-05-24T11:15:28.999Z,1318.00
2023-05-24T11:16:29.078Z,1321.00
2023-05-24T11:17:29.026Z,1333.00
2023-05-24T11:18:28.945Z,1316.00
2023-05-24T11:19:28.972Z,1332.00
2023-05-24T11:20:29.092Z,1344.00
2023-05-24T11:21:28.919Z,1335.00
2023-05-24T11:22:28.951Z,1323.00
2023-05-24T11:23:28.921Z,1340.00
2023-05-24T11:24:28.919Z,1352.00
2023-05-24T11:25:28.937Z,1343.00
2023-05-24T11:26:28.931Z,1340.00
2023-05-24T11:27:28.899Z,1339.00
2023-05-24T11:28:28.909Z,1350.00
2023-05-24T11:29:28.948Z,1357.00
2023-05-24T11:30:28.892Z,1335.00
2023-05-24T11:31:28.947Z,1354.00
2023-05-24T11:32:28.900Z,1345.00
2023-05-24T11:33:28.870Z,1353.00
2023-05-24T11:34:28.839Z,1351.00
2023-05-24T11:35:28.855Z,1357.00
2023-05-24T11:36:28.892Z,1357.00
2023-05-24T11:37:42.643Z,1350.00
2023-05-24T11:38:29.873Z,1351.00
2023-05-24T11:39:28.837Z,1352.00
2023-05-24T11:40:28.816Z,1357.00
2023-05-24T11:41:28.967Z,1366.00
2023-05-24T11:42:28.796Z,1367.00
2023-05-24T11:43:28.789Z,1359.00
2023-05-24T11:44:28.850Z,1364.00
2023-05-24T11:45:28.783Z,1363.00
2023-05-24T11:46:29.086Z,1362.00
2023-05-24T11:47:28.820Z,1367.00
2023-05-24T11:48:28.787Z,1379.00
2023-05-24T11:49:28.808Z,1355.00
2023-05-24T11:50:29.008Z,1371.00
2023-05-24T11:51:28.859Z,1363.00
2023-05-24T11:52:28.980Z,1369.00
2023-05-24T11:53:28.988Z,1360.00
2023-05-24T11:54:29.035Z,1353.00
2023-05-24T11:55:29.066Z,1313.00
2023-05-24T11:56:31.580Z,1329.00
2023-05-24T11:57:29.108Z,1288.00
2023-05-24T11:58:29.132Z,1279.00
2023-05-24T11:59:29.126Z,1271.00
2023-05-24T12:00:29.157Z,1212.00
2023-05-24T12:01:29.113Z,1195.00
2023-05-24T12:02:29.199Z,1201.00
2023-05-24T12:03:29.260Z,1192.00
2023-05-24T12:04:29.154Z,1209.00
2023-05-24T12:05:29.076Z,1230.00
2023-05-24T12:06:29.076Z,1214.00
2023-05-24T12:07:29.044Z,1219.00
2023-05-24T12:08:29.108Z,1228.00
2023-05-24T12:09:29.050Z,1232.00
2023-05-24T12:10:29.044Z,1228.00
2023-05-24T12:11:29.046Z,1246.00
2023-05-24T12:12:34.356Z,1243.00
2023-05-24T12:13:29.997Z,1244.00
2023-05-24T12:14:29.033Z,1243.00
2023-05-24T12:15:29.054Z,1241.00
2023-05-24T12:16:29.071Z,1229.00
2023-05-24T12:17:29.908Z,1220.00
2023-05-24T12:18:29.913Z,1215.00
2023-05-24T12:19:33.291Z,1228.00
2023-05-24T12:20:29.990Z,1229.00
2023-05-24T12:21:28.970Z,1229.00